sensor_id;sensor_type;location;lat;lon;timestamp;P1;durP1;ratioP1;P2;durP2;ratioP2
70071;SDS011;57434;42.794;23.302;2023-03-01T00:01:01;3.50;;;1.00;;
70071;SDS011;57434;42.794;23.302;2023-03-01T00:02:04;2.25;;;0.40;;
70071;SDS011;57434;42.794;23.302;2023-03-01T00:03:06;2.53;;;0.50;;
70071;SDS011;57434;42.794;23.302;2023-03-01T00:04:08;2.97;;;0.85;;
70071;SDS011;57434;42.794;23.302;2023-03-01T00:05:10;3.42;;;0.70;;
70071;SDS011;57434;42.794;23.302;2023-03-01T00:06:12;3.05;;;0.60;;
70071;SDS011;57434;42.794;23.302;2023-03-01T00:07:15;3.45;;;0.80;;
70071;SDS011;57434;42.794;23.302;2023-03-01T00:08:17;2.67;;;0.70;;
70071;SDS011;57434;42.794;23.302;2023-03-01T00:09:18;2.78;;;0.63;;
70071;SDS011;57434;42.794;23.302;2023-03-01T00:10:20;3.08;;;0.70;;
70071;SDS011;57434;42.794;23.302;2023-03-01T00:11:23;4.27;;;0.90;;
70071;SDS011;57434;42.794;23.302;2023-03-01T00:12:29;3.13;;;0.90;;
70071;SDS011;57434;42.794;23.302;2023-03-01T00:13:33;3.97;;;0.82;;
70071;SDS011;57434;42.794;23.302;2023-03-01T00:14:36;3.03;;;0.73;;
70071;SDS011;57434;42.794;23.302;2023-03-01T00:15:38;2.80;;;0.80;;
70071;SDS011;57434;42.794;23.302;2023-03-01T00:16:41;3.38;;;0.80;;
70071;SDS011;57434;42.794;23.302;2023-03-01T00:17:44;3.85;;;1.10;;
70071;SDS011;57434;42.794;23.302;2023-03-01T00:18:46;3.45;;;0.93;;
70071;SDS011;57434;42.794;23.302;2023-03-01T00:19:48;4.60;;;1.00;;
70071;SDS011;57434;42.794;23.302;2023-03-01T00:20:50;2.83;;;0.70;;
70071;SDS011;57434;42.794;23.302;2023-03-01T00:21:53;3.67;;;1.10;;
70071;SDS011;57434;42.794;23.302;2023-03-01T00:22:54;3.53;;;0.60;;
70071;SDS011;57434;42.794;23.302;2023-03-01T00:23:57;3.28;;;0.88;;
70071;SDS011;57434;42.794;23.302;2023-03-01T00:24:59;2.70;;;0.60;;
70071;SDS011;57434;42.794;23.302;2023-03-01T00:26:01;4.55;;;1.27;;
70071;SDS011;57434;42.794;23.302;2023-03-01T00:27:03;3.08;;;0.60;;
70071;SDS011;57434;42.794;23.302;2023-03-01T00:28:04;3.28;;;1.10;;
70071;SDS011;57434;42.794;23.302;2023-03-01T00:29:06;3.30;;;0.68;;
70071;SDS011;57434;42.794;23.302;2023-03-01T00:30:08;3.08;;;0.63;;
70071;SDS011;57434;42.794;23.302;2023-03-01T00:31:15;3.40;;;0.90;;
70071;SDS011;57434;42.794;23.302;2023-03-01T00:32:19;3.53;;;0.90;;
70071;SDS011;57434;42.794;23.302;2023-03-01T00:33:20;2.88;;;0.70;;
70071;SDS011;57434;42.794;23.302;2023-03-01T00:34:22;3.05;;;0.80;;
70071;SDS011;57434;42.794;23.302;2023-03-01T00:35:24;2.53;;;0.57;;
70071;SDS011;57434;42.794;23.302;2023-03-01T00:36:30;2.80;;;0.70;;
70071;SDS011;57434;42.794;23.302;2023-03-01T00:37:36;4.22;;;0.55;;
70071;SDS011;57434;42.794;23.302;2023-03-01T00:38:38;3.15;;;0.80;;
70071;SDS011;57434;42.794;23.302;2023-03-01T00:39:41;2.55;;;0.52;;
70071;SDS011;57434;42.794;23.302;2023-03-01T00:40:43;2.15;;;0.60;;
70071;SDS011;57434;42.794;23.302;2023-03-01T00:41:45;3.05;;;0.90;;
70071;SDS011;57434;42.794;23.302;2023-03-01T00:42:46;3.10;;;0.80;;
70071;SDS011;57434;42.794;23.302;2023-03-01T00:43:48;4.07;;;0.80;;
70071;SDS011;57434;42.794;23.302;2023-03-01T00:44:51;2.83;;;0.60;;
70071;SDS011;57434;42.794;23.302;2023-03-01T00:45:53;2.72;;;0.70;;
70071;SDS011;57434;42.794;23.302;2023-03-01T00:46:55;3.17;;;0.70;;
70071;SDS011;57434;42.794;23.302;2023-03-01T00:47:57;3.28;;;0.70;;
70071;SDS011;57434;42.794;23.302;2023-03-01T00:48:59;2.78;;;0.70;;
70071;SDS011;57434;42.794;23.302;2023-03-01T00:50:01;3.75;;;0.75;;
70071;SDS011;57434;42.794;23.302;2023-03-01T00:51:06;4.85;;;0.98;;
70071;SDS011;57434;42.794;23.302;2023-03-01T00:52:10;4.25;;;0.70;;
70071;SDS011;57434;42.794;23.302;2023-03-01T00:53:11;3.97;;;0.80;;
70071;SDS011;57434;42.794;23.302;2023-03-01T00:54:13;1.73;;;0.50;;
70071;SDS011;57434;42.794;23.302;2023-03-01T00:55:15;4.35;;;1.13;;
70071;SDS011;57434;42.794;23.302;2023-03-01T00:56:17;4.43;;;1.02;;
70071;SDS011;57434;42.794;23.302;2023-03-01T00:57:19;4.13;;;1.40;;
70071;SDS011;57434;42.794;23.302;2023-03-01T00:58:21;4.10;;;0.85;;
70071;SDS011;57434;42.794;23.302;2023-03-01T00:59:23;4.00;;;0.90;;
70071;SDS011;57434;42.794;23.302;2023-03-01T01:00:24;3.38;;;1.00;;
70071;SDS011;57434;42.794;23.302;2023-03-01T01:01:28;2.80;;;0.70;;
70071;SDS011;57434;42.794;23.302;2023-03-01T01:02:32;2.53;;;0.50;;
70071;SDS011;57434;42.794;23.302;2023-03-01T01:03:35;3.07;;;0.90;;
70071;SDS011;57434;42.794;23.302;2023-03-01T01:04:38;3.90;;;0.80;;
70071;SDS011;57434;42.794;23.302;2023-03-01T01:05:39;4.53;;;0.82;;
70071;SDS011;57434;42.794;23.302;2023-03-01T01:06:42;3.38;;;1.05;;
70071;SDS011;57434;42.794;23.302;2023-03-01T01:07:47;4.07;;;0.98;;
70071;SDS011;57434;42.794;23.302;2023-03-01T01:08:50;7.18;;;3.00;;
70071;SDS011;57434;42.794;23.302;2023-03-01T01:09:54;6.53;;;2.47;;
70071;SDS011;57434;42.794;23.302;2023-03-01T01:10:55;4.50;;;2.08;;
70071;SDS011;57434;42.794;23.302;2023-03-01T01:11:57;3.58;;;0.98;;
70071;SDS011;57434;42.794;23.302;2023-03-01T01:13:00;4.05;;;1.00;;
70071;SDS011;57434;42.794;23.302;2023-03-01T01:14:02;3.60;;;0.93;;
70071;SDS011;57434;42.794;23.302;2023-03-01T01:15:04;2.80;;;0.90;;
70071;SDS011;57434;42.794;23.302;2023-03-01T01:16:07;3.60;;;1.00;;
70071;SDS011;57434;42.794;23.302;2023-03-01T01:17:09;4.07;;;1.02;;
70071;SDS011;57434;42.794;23.302;2023-03-01T01:18:11;3.35;;;0.68;;
70071;SDS011;57434;42.794;23.302;2023-03-01T01:19:14;3.85;;;0.95;;
70071;SDS011;57434;42.794;23.302;2023-03-01T01:20:17;4.57;;;1.15;;
70071;SDS011;57434;42.794;23.302;2023-03-01T01:21:20;2.60;;;0.60;;
70071;SDS011;57434;42.794;23.302;2023-03-01T01:22:23;3.15;;;0.93;;
70071;SDS011;57434;42.794;23.302;2023-03-01T01:23:25;2.80;;;0.60;;
70071;SDS011;57434;42.794;23.302;2023-03-01T01:24:27;3.33;;;0.90;;
70071;SDS011;57434;42.794;23.302;2023-03-01T01:25:29;2.33;;;0.60;;
70071;SDS011;57434;42.794;23.302;2023-03-01T01:26:31;3.53;;;0.90;;
70071;SDS011;57434;42.794;23.302;2023-03-01T01:27:35;3.50;;;0.75;;
70071;SDS011;57434;42.794;23.302;2023-03-01T01:28:38;2.75;;;0.73;;
70071;SDS011;57434;42.794;23.302;2023-03-01T01:29:40;2.92;;;0.60;;
70071;SDS011;57434;42.794;23.302;2023-03-01T01:30:42;3.00;;;0.70;;
70071;SDS011;57434;42.794;23.302;2023-03-01T01:31:43;2.83;;;0.68;;
70071;SDS011;57434;42.794;23.302;2023-03-01T01:32:45;4.20;;;0.60;;
70071;SDS011;57434;42.794;23.302;2023-03-01T01:33:47;4.55;;;0.98;;
70071;SDS011;57434;42.794;23.302;2023-03-01T01:34:49;3.00;;;0.80;;
70071;SDS011;57434;42.794;23.302;2023-03-01T01:35:51;3.40;;;0.70;;
70071;SDS011;57434;42.794;23.302;2023-03-01T01:36:53;3.65;;;1.23;;
70071;SDS011;57434;42.794;23.302;2023-03-01T01:37:55;3.00;;;0.80;;
70071;SDS011;57434;42.794;23.302;2023-03-01T01:38:57;3.35;;;0.73;;
70071;SDS011;57434;42.794;23.302;2023-03-01T01:39:59;3.78;;;0.73;;
70071;SDS011;57434;42.794;23.302;2023-03-01T01:41:02;3.60;;;0.63;;
70071;SDS011;57434;42.794;23.302;2023-03-01T01:42:04;4.38;;;1.00;;
70071;SDS011;57434;42.794;23.302;2023-03-01T01:43:09;3.15;;;0.80;;
70071;SDS011;57434;42.794;23.302;2023-03-01T01:44:24;3.92;;;0.80;;
70071;SDS011;57434;42.794;23.302;2023-03-01T01:45:34;3.77;;;0.93;;
70071;SDS011;57434;42.794;23.302;2023-03-01T01:46:37;2.75;;;0.60;;
70071;SDS011;57434;42.794;23.302;2023-03-01T01:47:42;4.18;;;0.88;;
70071;SDS011;57434;42.794;23.302;2023-03-01T01:48:45;3.60;;;1.10;;
70071;SDS011;57434;42.794;23.302;2023-03-01T01:49:51;3.53;;;0.70;;
70071;SDS011;57434;42.794;23.302;2023-03-01T01:50:58;2.20;;;0.50;;
70071;SDS011;57434;42.794;23.302;2023-03-01T01:53:18;2.28;;;0.88;;
70071;SDS011;57434;42.794;23.302;2023-03-01T01:54:23;3.85;;;0.73;;
70071;SDS011;57434;42.794;23.302;2023-03-01T01:55:30;3.55;;;0.73;;
70071;SDS011;57434;42.794;23.302;2023-03-01T01:56:32;2.70;;;0.80;;
70071;SDS011;57434;42.794;23.302;2023-03-01T01:57:41;2.88;;;0.43;;
70071;SDS011;57434;42.794;23.302;2023-03-01T01:58:48;2.67;;;0.70;;
70071;SDS011;57434;42.794;23.302;2023-03-01T01:59:52;3.28;;;0.90;;
70071;SDS011;57434;42.794;23.302;2023-03-01T02:01:00;2.08;;;0.50;;
70071;SDS011;57434;42.794;23.302;2023-03-01T02:02:03;2.28;;;0.60;;
70071;SDS011;57434;42.794;23.302;2023-03-01T02:03:10;2.88;;;0.77;;
70071;SDS011;57434;42.794;23.302;2023-03-01T02:04:14;3.95;;;0.70;;
70071;SDS011;57434;42.794;23.302;2023-03-01T02:06:37;1.85;;;0.40;;
70071;SDS011;57434;42.794;23.302;2023-03-01T02:07:45;2.47;;;0.60;;
70071;SDS011;57434;42.794;23.302;2023-03-01T02:08:49;1.67;;;0.50;;
70071;SDS011;57434;42.794;23.302;2023-03-01T02:09:54;2.83;;;0.60;;
70071;SDS011;57434;42.794;23.302;2023-03-01T02:10:56;2.72;;;0.60;;
70071;SDS011;57434;42.794;23.302;2023-03-01T02:12:01;2.30;;;0.55;;
70071;SDS011;57434;42.794;23.302;2023-03-01T02:13:04;2.38;;;0.60;;
70071;SDS011;57434;42.794;23.302;2023-03-01T02:14:06;3.20;;;0.60;;
70071;SDS011;57434;42.794;23.302;2023-03-01T02:15:08;3.05;;;0.90;;
70071;SDS011;57434;42.794;23.302;2023-03-01T02:16:11;2.95;;;0.60;;
70071;SDS011;57434;42.794;23.302;2023-03-01T02:17:16;3.53;;;0.82;;
70071;SDS011;57434;42.794;23.302;2023-03-01T02:18:20;3.10;;;0.60;;
70071;SDS011;57434;42.794;23.302;2023-03-01T02:19:31;2.80;;;0.70;;
70071;SDS011;57434;42.794;23.302;2023-03-01T02:21:05;3.15;;;0.60;;
70071;SDS011;57434;42.794;23.302;2023-03-01T02:22:16;1.95;;;0.50;;
70071;SDS011;57434;42.794;23.302;2023-03-01T02:23:29;3.35;;;0.68;;
70071;SDS011;57434;42.794;23.302;2023-03-01T02:24:37;2.88;;;0.45;;
70071;SDS011;57434;42.794;23.302;2023-03-01T02:27:20;2.45;;;0.60;;
70071;SDS011;57434;42.794;23.302;2023-03-01T02:29:34;2.70;;;0.70;;
70071;SDS011;57434;42.794;23.302;2023-03-01T02:30:36;2.60;;;0.50;;
70071;SDS011;57434;42.794;23.302;2023-03-01T02:31:39;2.38;;;0.60;;
70071;SDS011;57434;42.794;23.302;2023-03-01T02:32:41;3.85;;;0.80;;
70071;SDS011;57434;42.794;23.302;2023-03-01T02:33:43;4.35;;;0.80;;
70071;SDS011;57434;42.794;23.302;2023-03-01T02:36:30;3.33;;;0.80;;
70071;SDS011;57434;42.794;23.302;2023-03-01T02:37:37;2.83;;;0.60;;
70071;SDS011;57434;42.794;23.302;2023-03-01T02:38:41;2.17;;;0.40;;
70071;SDS011;57434;42.794;23.302;2023-03-01T02:39:46;3.72;;;1.00;;
70071;SDS011;57434;42.794;23.302;2023-03-01T02:40:50;3.58;;;0.60;;
70071;SDS011;57434;42.794;23.302;2023-03-01T02:41:53;4.27;;;1.00;;
70071;SDS011;57434;42.794;23.302;2023-03-01T02:42:57;2.85;;;0.50;;
70071;SDS011;57434;42.794;23.302;2023-03-01T02:44:00;4.90;;;1.20;;
70071;SDS011;57434;42.794;23.302;2023-03-01T02:45:03;2.50;;;0.60;;
70071;SDS011;57434;42.794;23.302;2023-03-01T02:46:06;2.65;;;0.50;;
70071;SDS011;57434;42.794;23.302;2023-03-01T02:47:17;3.15;;;0.55;;
70071;SDS011;57434;42.794;23.302;2023-03-01T02:48:19;3.38;;;0.60;;
70071;SDS011;57434;42.794;23.302;2023-03-01T02:49:28;4.32;;;0.60;;
70071;SDS011;57434;42.794;23.302;2023-03-01T02:50:39;2.75;;;0.75;;
70071;SDS011;57434;42.794;23.302;2023-03-01T02:55:07;2.33;;;0.57;;
70071;SDS011;57434;42.794;23.302;2023-03-01T02:56:11;3.22;;;0.55;;
70071;SDS011;57434;42.794;23.302;2023-03-01T02:57:15;3.00;;;0.63;;
70071;SDS011;57434;42.794;23.302;2023-03-01T02:58:17;2.85;;;0.60;;
70071;SDS011;57434;42.794;23.302;2023-03-01T02:59:20;3.00;;;0.70;;
70071;SDS011;57434;42.794;23.302;2023-03-01T03:00:24;3.97;;;0.52;;
70071;SDS011;57434;42.794;23.302;2023-03-01T03:01:32;2.75;;;0.35;;
70071;SDS011;57434;42.794;23.302;2023-03-01T03:02:34;2.78;;;0.60;;
70071;SDS011;57434;42.794;23.302;2023-03-01T03:03:36;4.20;;;0.70;;
70071;SDS011;57434;42.794;23.302;2023-03-01T03:04:38;3.90;;;0.60;;
70071;SDS011;57434;42.794;23.302;2023-03-01T03:05:40;2.15;;;0.50;;
70071;SDS011;57434;42.794;23.302;2023-03-01T03:06:45;2.83;;;0.88;;
70071;SDS011;57434;42.794;23.302;2023-03-01T03:07:49;2.50;;;0.63;;
70071;SDS011;57434;42.794;23.302;2023-03-01T03:08:51;3.67;;;0.65;;
70071;SDS011;57434;42.794;23.302;2023-03-01T03:09:53;2.97;;;0.50;;
70071;SDS011;57434;42.794;23.302;2023-03-01T03:10:55;3.83;;;0.80;;
70071;SDS011;57434;42.794;23.302;2023-03-01T03:11:57;2.80;;;0.60;;
70071;SDS011;57434;42.794;23.302;2023-03-01T03:13:01;2.53;;;0.40;;
70071;SDS011;57434;42.794;23.302;2023-03-01T03:14:05;2.90;;;0.52;;
70071;SDS011;57434;42.794;23.302;2023-03-01T03:15:07;1.83;;;0.47;;
70071;SDS011;57434;42.794;23.302;2023-03-01T03:16:10;2.70;;;0.50;;
70071;SDS011;57434;42.794;23.302;2023-03-01T03:17:12;3.13;;;0.77;;
70071;SDS011;57434;42.794;23.302;2023-03-01T03:18:15;3.25;;;0.52;;
70071;SDS011;57434;42.794;23.302;2023-03-01T03:19:18;5.57;;;1.50;;
70071;SDS011;57434;42.794;23.302;2023-03-01T03:20:21;5.03;;;1.23;;
70071;SDS011;57434;42.794;23.302;2023-03-01T03:21:25;4.20;;;1.13;;
70071;SDS011;57434;42.794;23.302;2023-03-01T03:22:26;3.03;;;0.65;;
70071;SDS011;57434;42.794;23.302;2023-03-01T03:23:28;2.47;;;0.68;;
70071;SDS011;57434;42.794;23.302;2023-03-01T03:24:30;3.03;;;0.50;;
70071;SDS011;57434;42.794;23.302;2023-03-01T03:25:32;3.07;;;0.60;;
70071;SDS011;57434;42.794;23.302;2023-03-01T03:26:34;2.17;;;0.60;;
70071;SDS011;57434;42.794;23.302;2023-03-01T03:27:36;2.55;;;0.73;;
70071;SDS011;57434;42.794;23.302;2023-03-01T03:28:39;3.15;;;0.80;;
70071;SDS011;57434;42.794;23.302;2023-03-01T03:29:41;2.10;;;0.50;;
70071;SDS011;57434;42.794;23.302;2023-03-01T03:30:43;6.40;;;1.13;;
70071;SDS011;57434;42.794;23.302;2023-03-01T03:31:45;2.22;;;0.50;;
70071;SDS011;57434;42.794;23.302;2023-03-01T03:32:47;2.13;;;0.63;;
70071;SDS011;57434;42.794;23.302;2023-03-01T03:33:49;3.42;;;0.90;;
70071;SDS011;57434;42.794;23.302;2023-03-01T03:34:50;2.55;;;0.60;;
70071;SDS011;57434;42.794;23.302;2023-03-01T03:35:52;1.87;;;0.40;;
70071;SDS011;57434;42.794;23.302;2023-03-01T03:36:54;2.90;;;0.60;;
70071;SDS011;57434;42.794;23.302;2023-03-01T03:37:58;2.45;;;0.50;;
70071;SDS011;57434;42.794;23.302;2023-03-01T03:39:02;3.33;;;0.75;;
70071;SDS011;57434;42.794;23.302;2023-03-01T03:40:04;1.95;;;0.45;;
70071;SDS011;57434;42.794;23.302;2023-03-01T03:41:07;2.55;;;0.68;;
70071;SDS011;57434;42.794;23.302;2023-03-01T03:42:09;1.90;;;0.47;;
70071;SDS011;57434;42.794;23.302;2023-03-01T03:43:15;2.50;;;0.60;;
70071;SDS011;57434;42.794;23.302;2023-03-01T03:44:19;3.15;;;0.90;;
70071;SDS011;57434;42.794;23.302;2023-03-01T03:45:40;1.88;;;0.50;;
70071;SDS011;57434;42.794;23.302;2023-03-01T03:46:42;2.27;;;0.60;;
70071;SDS011;57434;42.794;23.302;2023-03-01T03:48:03;2.92;;;0.75;;
70071;SDS011;57434;42.794;23.302;2023-03-01T03:49:06;1.98;;;0.57;;
70071;SDS011;57434;42.794;23.302;2023-03-01T03:50:12;5.15;;;0.77;;
70071;SDS011;57434;42.794;23.302;2023-03-01T03:51:16;3.53;;;0.80;;
70071;SDS011;57434;42.794;23.302;2023-03-01T03:52:19;2.85;;;0.73;;
70071;SDS011;57434;42.794;23.302;2023-03-01T03:53:22;2.38;;;0.43;;
70071;SDS011;57434;42.794;23.302;2023-03-01T03:54:25;2.08;;;0.40;;
70071;SDS011;57434;42.794;23.302;2023-03-01T03:55:27;2.45;;;0.60;;
70071;SDS011;57434;42.794;23.302;2023-03-01T03:57:49;2.07;;;0.40;;
70071;SDS011;57434;42.794;23.302;2023-03-01T03:58:54;1.65;;;0.30;;
70071;SDS011;57434;42.794;23.302;2023-03-01T04:01:52;2.72;;;0.70;;
70071;SDS011;57434;42.794;23.302;2023-03-01T04:02:54;2.15;;;0.60;;
70071;SDS011;57434;42.794;23.302;2023-03-01T04:03:55;2.47;;;0.52;;
70071;SDS011;57434;42.794;23.302;2023-03-01T04:04:57;2.50;;;0.57;;
70071;SDS011;57434;42.794;23.302;2023-03-01T04:06:00;2.13;;;0.45;;
70071;SDS011;57434;42.794;23.302;2023-03-01T04:07:02;2.50;;;0.60;;
70071;SDS011;57434;42.794;23.302;2023-03-01T04:08:04;1.75;;;0.50;;
70071;SDS011;57434;42.794;23.302;2023-03-01T04:09:06;1.93;;;0.50;;
70071;SDS011;57434;42.794;23.302;2023-03-01T04:10:12;2.67;;;0.60;;
70071;SDS011;57434;42.794;23.302;2023-03-01T04:11:16;2.17;;;0.40;;
70071;SDS011;57434;42.794;23.302;2023-03-01T04:12:17;3.58;;;0.73;;
70071;SDS011;57434;42.794;23.302;2023-03-01T04:13:20;3.53;;;0.90;;
70071;SDS011;57434;42.794;23.302;2023-03-01T04:14:23;2.80;;;0.70;;
70071;SDS011;57434;42.794;23.302;2023-03-01T04:15:25;3.60;;;0.75;;
70071;SDS011;57434;42.794;23.302;2023-03-01T04:16:28;2.58;;;0.63;;
70071;SDS011;57434;42.794;23.302;2023-03-01T04:17:30;6.55;;;1.45;;
70071;SDS011;57434;42.794;23.302;2023-03-01T04:18:32;4.45;;;1.50;;
70071;SDS011;57434;42.794;23.302;2023-03-01T04:19:34;4.23;;;1.00;;
70071;SDS011;57434;42.794;23.302;2023-03-01T04:20:36;3.25;;;0.55;;
70071;SDS011;57434;42.794;23.302;2023-03-01T04:21:38;2.53;;;0.60;;
70071;SDS011;57434;42.794;23.302;2023-03-01T04:22:40;1.98;;;0.50;;
70071;SDS011;57434;42.794;23.302;2023-03-01T04:23:42;3.33;;;0.57;;
70071;SDS011;57434;42.794;23.302;2023-03-01T04:24:44;6.00;;;2.40;;
70071;SDS011;57434;42.794;23.302;2023-03-01T04:25:47;8.27;;;2.40;;
70071;SDS011;57434;42.794;23.302;2023-03-01T04:26:51;4.55;;;1.20;;
70071;SDS011;57434;42.794;23.302;2023-03-01T04:27:53;5.68;;;1.50;;
70071;SDS011;57434;42.794;23.302;2023-03-01T04:28:54;4.43;;;1.30;;
70071;SDS011;57434;42.794;23.302;2023-03-01T04:29:56;3.67;;;1.20;;
70071;SDS011;57434;42.794;23.302;2023-03-01T04:30:58;5.15;;;0.90;;
70071;SDS011;57434;42.794;23.302;2023-03-01T04:32:10;5.30;;;1.75;;
70071;SDS011;57434;42.794;23.302;2023-03-01T04:33:12;6.35;;;1.95;;
70071;SDS011;57434;42.794;23.302;2023-03-01T04:34:14;4.88;;;1.50;;
70071;SDS011;57434;42.794;23.302;2023-03-01T04:35:15;4.60;;;1.15;;
70071;SDS011;57434;42.794;23.302;2023-03-01T04:36:18;5.28;;;1.67;;
70071;SDS011;57434;42.794;23.302;2023-03-01T04:37:21;3.92;;;0.90;;
70071;SDS011;57434;42.794;23.302;2023-03-01T04:38:23;2.85;;;0.80;;
70071;SDS011;57434;42.794;23.302;2023-03-01T04:39:25;3.45;;;0.60;;
70071;SDS011;57434;42.794;23.302;2023-03-01T04:40:27;2.83;;;0.77;;
70071;SDS011;57434;42.794;23.302;2023-03-01T04:41:29;2.53;;;0.60;;
70071;SDS011;57434;42.794;23.302;2023-03-01T04:42:30;2.83;;;0.55;;
70071;SDS011;57434;42.794;23.302;2023-03-01T04:43:32;3.78;;;0.93;;
70071;SDS011;57434;42.794;23.302;2023-03-01T04:44:34;4.53;;;0.63;;
70071;SDS011;57434;42.794;23.302;2023-03-01T04:45:36;2.65;;;0.60;;
70071;SDS011;57434;42.794;23.302;2023-03-01T04:46:38;4.20;;;0.90;;
70071;SDS011;57434;42.794;23.302;2023-03-01T04:47:41;3.17;;;0.70;;
70071;SDS011;57434;42.794;23.302;2023-03-01T04:48:45;4.60;;;1.10;;
70071;SDS011;57434;42.794;23.302;2023-03-01T04:49:47;4.05;;;0.93;;
70071;SDS011;57434;42.794;23.302;2023-03-01T04:50:48;3.37;;;0.70;;
70071;SDS011;57434;42.794;23.302;2023-03-01T04:51:50;2.55;;;0.70;;
70071;SDS011;57434;42.794;23.302;2023-03-01T04:52:52;3.30;;;0.90;;
70071;SDS011;57434;42.794;23.302;2023-03-01T04:53:53;3.13;;;0.70;;
70071;SDS011;57434;42.794;23.302;2023-03-01T04:54:55;2.58;;;0.75;;
70071;SDS011;57434;42.794;23.302;2023-03-01T04:55:57;5.20;;;1.38;;
70071;SDS011;57434;42.794;23.302;2023-03-01T04:57:00;9.25;;;3.78;;
70071;SDS011;57434;42.794;23.302;2023-03-01T04:58:02;5.50;;;1.35;;
70071;SDS011;57434;42.794;23.302;2023-03-01T04:59:04;8.23;;;2.17;;
70071;SDS011;57434;42.794;23.302;2023-03-01T05:00:07;12.15;;;4.85;;
70071;SDS011;57434;42.794;23.302;2023-03-01T05:01:12;6.27;;;2.03;;
70071;SDS011;57434;42.794;23.302;2023-03-01T05:02:16;4.03;;;0.98;;
70071;SDS011;57434;42.794;23.302;2023-03-01T05:03:18;4.57;;;1.10;;
70071;SDS011;57434;42.794;23.302;2023-03-01T05:04:20;3.45;;;0.70;;
70071;SDS011;57434;42.794;23.302;2023-03-01T05:06:32;2.97;;;0.77;;
70071;SDS011;57434;42.794;23.302;2023-03-01T05:07:33;3.53;;;0.70;;
70071;SDS011;57434;42.794;23.302;2023-03-01T05:08:35;2.75;;;0.60;;
70071;SDS011;57434;42.794;23.302;2023-03-01T05:09:37;3.53;;;0.88;;
70071;SDS011;57434;42.794;23.302;2023-03-01T05:10:39;3.80;;;1.00;;
70071;SDS011;57434;42.794;23.302;2023-03-01T05:11:41;3.80;;;0.90;;
70071;SDS011;57434;42.794;23.302;2023-03-01T05:12:43;3.08;;;0.90;;
70071;SDS011;57434;42.794;23.302;2023-03-01T05:13:45;3.85;;;0.85;;
70071;SDS011;57434;42.794;23.302;2023-03-01T05:14:47;3.30;;;0.90;;
70071;SDS011;57434;42.794;23.302;2023-03-01T05:15:55;4.15;;;1.08;;
70071;SDS011;57434;42.794;23.302;2023-03-01T05:16:58;4.32;;;1.50;;
70071;SDS011;57434;42.794;23.302;2023-03-01T05:18:00;4.85;;;1.00;;
70071;SDS011;57434;42.794;23.302;2023-03-01T05:19:03;5.03;;;1.40;;
70071;SDS011;57434;42.794;23.302;2023-03-01T05:20:06;18.63;;;5.28;;
70071;SDS011;57434;42.794;23.302;2023-03-01T05:21:09;15.00;;;4.10;;
70071;SDS011;57434;42.794;23.302;2023-03-01T05:22:14;12.23;;;3.47;;
70071;SDS011;57434;42.794;23.302;2023-03-01T05:23:16;11.63;;;3.83;;
70071;SDS011;57434;42.794;23.302;2023-03-01T05:24:17;9.82;;;3.05;;
70071;SDS011;57434;42.794;23.302;2023-03-01T05:25:20;10.15;;;3.60;;
70071;SDS011;57434;42.794;23.302;2023-03-01T05:26:22;6.32;;;1.63;;
70071;SDS011;57434;42.794;23.302;2023-03-01T05:27:29;6.72;;;1.83;;
70071;SDS011;57434;42.794;23.302;2023-03-01T05:28:30;4.53;;;1.10;;
70071;SDS011;57434;42.794;23.302;2023-03-01T05:29:33;5.28;;;2.10;;
70071;SDS011;57434;42.794;23.302;2023-03-01T05:30:35;3.78;;;1.30;;
70071;SDS011;57434;42.794;23.302;2023-03-01T05:31:37;7.88;;;2.65;;
70071;SDS011;57434;42.794;23.302;2023-03-01T05:32:41;11.63;;;4.00;;
70071;SDS011;57434;42.794;23.302;2023-03-01T05:33:44;3.78;;;0.98;;
70071;SDS011;57434;42.794;23.302;2023-03-01T05:34:46;5.18;;;1.10;;
70071;SDS011;57434;42.794;23.302;2023-03-01T05:35:48;3.90;;;0.90;;
70071;SDS011;57434;42.794;23.302;2023-03-01T05:36:52;1.88;;;0.50;;
70071;SDS011;57434;42.794;23.302;2023-03-01T05:37:54;3.00;;;0.50;;
70071;SDS011;57434;42.794;23.302;2023-03-01T05:38:56;4.55;;;0.93;;
70071;SDS011;57434;42.794;23.302;2023-03-01T05:39:59;3.65;;;0.80;;
70071;SDS011;57434;42.794;23.302;2023-03-01T05:41:01;3.72;;;1.17;;
70071;SDS011;57434;42.794;23.302;2023-03-01T05:42:03;4.20;;;1.25;;
70071;SDS011;57434;42.794;23.302;2023-03-01T05:43:05;3.43;;;0.77;;
70071;SDS011;57434;42.794;23.302;2023-03-01T05:44:08;2.15;;;0.55;;
70071;SDS011;57434;42.794;23.302;2023-03-01T05:45:11;5.85;;;1.27;;
70071;SDS011;57434;42.794;23.302;2023-03-01T05:46:14;7.95;;;2.60;;
70071;SDS011;57434;42.794;23.302;2023-03-01T05:47:16;12.35;;;4.13;;
70071;SDS011;57434;42.794;23.302;2023-03-01T05:48:18;5.10;;;2.00;;
70071;SDS011;57434;42.794;23.302;2023-03-01T05:49:20;10.07;;;3.00;;
70071;SDS011;57434;42.794;23.302;2023-03-01T05:50:23;5.70;;;1.50;;
70071;SDS011;57434;42.794;23.302;2023-03-01T05:51:27;3.78;;;0.93;;
70071;SDS011;57434;42.794;23.302;2023-03-01T05:52:29;3.35;;;0.68;;
70071;SDS011;57434;42.794;23.302;2023-03-01T05:53:31;3.90;;;0.80;;
70071;SDS011;57434;42.794;23.302;2023-03-01T05:54:33;2.72;;;0.45;;
70071;SDS011;57434;42.794;23.302;2023-03-01T05:55:38;3.70;;;0.80;;
70071;SDS011;57434;42.794;23.302;2023-03-01T05:56:40;2.45;;;0.55;;
70071;SDS011;57434;42.794;23.302;2023-03-01T05:57:42;2.92;;;0.73;;
70071;SDS011;57434;42.794;23.302;2023-03-01T05:58:44;2.47;;;0.55;;
70071;SDS011;57434;42.794;23.302;2023-03-01T05:59:46;3.35;;;0.77;;
70071;SDS011;57434;42.794;23.302;2023-03-01T06:00:48;4.95;;;0.80;;
70071;SDS011;57434;42.794;23.302;2023-03-01T06:01:52;3.45;;;0.75;;
70071;SDS011;57434;42.794;23.302;2023-03-01T06:02:54;3.13;;;0.90;;
70071;SDS011;57434;42.794;23.302;2023-03-01T06:03:57;2.40;;;0.70;;
70071;SDS011;57434;42.794;23.302;2023-03-01T06:04:59;4.93;;;1.50;;
70071;SDS011;57434;42.794;23.302;2023-03-01T06:06:01;4.05;;;1.10;;
70071;SDS011;57434;42.794;23.302;2023-03-01T06:07:03;3.50;;;0.98;;
70071;SDS011;57434;42.794;23.302;2023-03-01T06:08:05;5.85;;;1.45;;
70071;SDS011;57434;42.794;23.302;2023-03-01T06:09:07;4.35;;;1.20;;
70071;SDS011;57434;42.794;23.302;2023-03-01T06:10:10;6.28;;;2.03;;
70071;SDS011;57434;42.794;23.302;2023-03-01T06:11:13;4.57;;;1.42;;
70071;SDS011;57434;42.794;23.302;2023-03-01T06:12:15;5.22;;;1.02;;
70071;SDS011;57434;42.794;23.302;2023-03-01T06:13:17;5.28;;;1.40;;
70071;SDS011;57434;42.794;23.302;2023-03-01T06:14:19;6.43;;;1.30;;
70071;SDS011;57434;42.794;23.302;2023-03-01T06:15:21;8.80;;;2.22;;
70071;SDS011;57434;42.794;23.302;2023-03-01T06:16:22;6.32;;;1.83;;
70071;SDS011;57434;42.794;23.302;2023-03-01T06:17:24;5.55;;;1.45;;
70071;SDS011;57434;42.794;23.302;2023-03-01T06:18:26;4.07;;;1.08;;
70071;SDS011;57434;42.794;23.302;2023-03-01T06:19:28;4.53;;;1.15;;
70071;SDS011;57434;42.794;23.302;2023-03-01T06:20:30;5.18;;;1.50;;
70071;SDS011;57434;42.794;23.302;2023-03-01T06:21:32;5.28;;;1.20;;
70071;SDS011;57434;42.794;23.302;2023-03-01T06:22:34;5.75;;;1.80;;
70071;SDS011;57434;42.794;23.302;2023-03-01T06:23:36;5.38;;;1.60;;
70071;SDS011;57434;42.794;23.302;2023-03-01T06:24:38;4.77;;;1.17;;
70071;SDS011;57434;42.794;23.302;2023-03-01T06:25:40;2.92;;;0.73;;
70071;SDS011;57434;42.794;23.302;2023-03-01T06:26:42;4.65;;;1.40;;
70071;SDS011;57434;42.794;23.302;2023-03-01T06:27:43;5.57;;;1.33;;
70071;SDS011;57434;42.794;23.302;2023-03-01T06:28:45;4.80;;;1.38;;
70071;SDS011;57434;42.794;23.302;2023-03-01T06:29:47;3.78;;;1.10;;